Time;durP1;ratioP1;P1;durP2;ratioP2;P2;SDS_P1;SDS_P2;PMS_P1;PMS_P2;Temp;Humidity;BMP_temperature;BMP_pressure;BME280_temperature;BME280_humidity;BME280_pressure;Samples;Min_cycle;Max_cycle;Signal;HPM_P1;HPM_P2
2021/10/06 00:00:43;;;;;;;2.20;0.80;;;;;;;20.75;50.66;100732.25;4994169;28;20283;-58
2021/10/06 00:03:08;;;;;;;2.33;0.67;;;;;;;20.73;50.39;100735.03;4994402;28;20268;-58
2021/10/06 00:05:34;;;;;;;4.50;0.80;;;;;;;20.72;50.40;100736.00;4994683;28;20759;-59
2021/10/06 00:07:59;;;;;;;1.85;0.70;;;;;;;20.71;50.28;100733.50;4993797;28;20062;-58
2021/10/06 00:10:24;;;;;;;1.92;0.77;;;;;;;20.70;50.38;100734.50;4994494;28;20479;-58
2021/10/06 00:12:49;;;;;;;3.17;0.80;;;;;;;20.69;50.38;100732.81;4993987;28;20521;-59
2021/10/06 00:15:15;;;;;;;2.40;0.80;;;;;;;20.67;50.53;100738.25;4994280;28;20073;-59
2021/10/06 00:17:43;;;;;;;2.05;0.75;;;;;;;20.65;50.37;100735.75;4994590;28;20430;-58
2021/10/06 00:20:12;;;;;;;2.28;0.70;;;;;;;20.65;50.26;100729.63;4993513;28;20429;-58
2021/10/06 00:22:37;;;;;;;2.92;0.90;;;;;;;20.63;50.26;100729.75;4994397;28;20030;-58
2021/10/06 00:25:03;;;;;;;2.50;0.80;;;;;;;20.62;50.14;100733.34;4994394;28;20030;-57
2021/10/06 00:27:32;;;;;;;2.22;0.75;;;;;;;20.61;50.15;100731.69;4993430;28;20366;-58
2021/10/06 00:30:00;;;;;;;2.60;0.80;;;;;;;20.61;50.16;100736.97;4994361;28;20076;-57
2021/10/06 00:32:25;;;;;;;2.38;0.70;;;;;;;20.59;50.18;100728.34;4993906;28;20363;-58
2021/10/06 00:34:52;;;;;;;2.17;0.70;;;;;;;20.59;49.97;100728.34;4993506;28;20022;-59
2021/10/06 00:37:17;;;;;;;2.30;0.77;;;;;;;20.57;50.26;100730.31;4993849;28;20394;-58
2021/10/06 00:39:43;;;;;;;2.53;0.73;;;;;;;20.56;50.25;100730.44;4994281;28;20113;-58
2021/10/06 00:42:11;;;;;;;2.30;0.73;;;;;;;20.56;50.33;100731.28;4993325;28;20038;-57
2021/10/06 00:44:37;;;;;;;3.08;0.75;;;;;;;20.56;50.26;100738.41;4994471;28;20066;-57
2021/10/06 00:47:11;;;;;;;2.85;0.80;;;;;;;20.55;50.19;100739.38;4994165;28;20474;-58
2021/10/06 00:49:36;;;;;;;2.65;0.82;;;;;;;20.54;50.22;100735.88;4993575;28;20030;-57
2021/10/06 00:52:02;;;;;;;2.25;0.95;;;;;;;20.54;50.13;100743.84;4993905;28;20062;-58
2021/10/06 00:54:27;;;;;;;2.63;0.80;;;;;;;20.53;50.23;100738.69;4994041;28;20383;-59
2021/10/06 00:56:52;;;;;;;2.67;0.90;;;;;;;20.53;49.96;100743.97;4993126;28;20034;-58
2021/10/06 00:59:18;;;;;;;3.20;0.80;;;;;;;20.51;49.94;100744.13;4993395;28;20142;-59
2021/10/06 01:01:43;;;;;;;3.00;1.00;;;;;;;20.50;50.02;100752.19;4993634;28;20496;-59
2021/10/06 01:04:08;;;;;;;1.85;0.70;;;;;;;20.49;50.18;100743.44;4992685;28;20018;-58
2021/10/06 01:06:34;;;;;;;3.75;0.90;;;;;;;20.47;50.16;100748.88;4994131;28;20033;-58
2021/10/06 01:09:00;;;;;;;1.67;0.50;;;;;;;20.47;50.01;100751.50;4994179;28;20033;-59
2021/10/06 01:11:28;;;;;;;2.92;0.82;;;;;;;20.46;50.13;100754.31;4993020;28;20367;-59
2021/10/06 01:13:54;;;;;;;3.25;1.00;;;;;;;20.45;50.03;100749.97;4993787;28;20023;-59
2021/10/06 01:16:22;;;;;;;2.85;0.80;;;;;;;20.44;50.12;100756.22;4992611;28;20038;-60
2021/10/06 01:18:47;;;;;;;2.95;0.82;;;;;;;20.43;50.01;100752.75;4993408;28;20026;-59
2021/10/06 01:21:14;;;;;;;3.47;0.75;;;;;;;20.42;50.13;100766.97;4993456;28;20064;-59
2021/10/06 01:23:40;;;;;;;2.10;0.70;;;;;;;20.43;50.27;100773.13;4993102;28;20196;-59
2021/10/06 01:26:06;;;;;;;2.53;0.77;;;;;;;20.41;50.00;100767.09;4993113;28;20071;-58
2021/10/06 01:28:31;;;;;;;1.65;0.80;;;;;;;20.40;50.09;100754.88;4993524;28;20034;-59
2021/10/06 01:30:56;;;;;;;2.45;0.70;;;;;;;20.40;49.97;100765.47;4992772;28;20036;-59
2021/10/06 01:33:22;;;;;;;1.75;0.70;;;;;;;20.38;50.16;100773.53;4992952;28;20049;-58
2021/10/06 01:35:47;;;;;;;2.22;0.80;;;;;;;20.37;50.16;100771.84;4993401;28;20096;-59
2021/10/06 01:38:12;;;;;;;2.83;1.10;;;;;;;20.37;49.95;100769.22;4992091;28;20061;-59
2021/10/06 01:40:38;;;;;;;2.03;0.73;;;;;;;20.36;50.06;100772.84;4993365;28;20038;-59
2021/10/06 01:43:03;;;;;;;2.92;0.80;;;;;;;20.36;49.95;100777.28;4992835;28;20022;-58
2021/10/06 01:45:32;;;;;;;3.75;0.70;;;;;;;20.35;49.96;100767.69;4992286;28;20038;-58
2021/10/06 01:48:05;;;;;;;3.35;0.98;;;;;;;20.34;49.91;100766.00;4992852;28;20058;-59
2021/10/06 01:50:30;;;;;;;4.68;0.82;;;;;;;20.35;49.84;100775.63;4992710;28;20482;-59
2021/10/06 01:52:56;;;;;;;1.88;0.70;;;;;;;20.34;50.01;100785.38;4992045;28;20034;-57
2021/10/06 01:55:32;;;;;;;3.60;0.85;;;;;;;20.32;49.74;100781.22;4992530;28;20113;-59
2021/10/06 01:57:59;;;;;;;2.92;0.70;;;;;;;20.33;50.00;100772.28;4992802;28;20033;-58
2021/10/06 02:00:25;;;;;;;2.67;0.82;;;;;;;20.30;49.97;100778.69;4991591;28;20050;-58
2021/10/06 02:02:51;;;;;;;2.67;0.98;;;;;;;20.30;49.82;100781.34;4992153;28;20080;-58
2021/10/06 02:05:16;;;;;;;2.28;0.75;;;;;;;20.28;49.80;100792.06;4992621;28;20018;-59
2021/10/06 02:07:42;;;;;;;2.65;0.80;;;;;;;20.27;49.89;100787.75;4992038;28;20029;-58
2021/10/06 02:10:07;;;;;;;2.95;0.90;;;;;;;20.28;49.80;100788.56;4992516;28;20041;-59
2021/10/06 02:12:35;;;;;;;2.63;0.90;;;;;;;20.27;49.87;100792.22;4991967;28;20034;-59
2021/10/06 02:15:04;;;;;;;3.42;1.00;;;;;;;20.24;49.86;100782.72;4992535;28;20049;-59
2021/10/06 02:17:30;;;;;;;2.30;0.80;;;;;;;20.25;50.02;100787.06;4992387;28;20505;-60
2021/10/06 02:19:55;;;;;;;2.65;0.80;;;;;;;20.24;49.97;100785.38;4991958;28;20026;-58
2021/10/06 02:22:20;;;;;;;3.75;0.90;;;;;;;20.24;49.95;100777.44;4992369;28;20023;-58
2021/10/06 02:24:56;;;;;;;;;;;;;;;;;;;;;
2021/10/06 02:27:21;;;;;;;3.80;0.90;;;;;;;20.23;49.84;100774.94;4990349;28;20450;-58
2021/10/06 02:29:46;;;;;;;2.92;0.73;;;;;;;20.23;49.77;100772.28;4992514;28;20030;-58
2021/10/06 02:32:11;;;;;;;3.20;0.90;;;;;;;20.22;49.67;100760.03;4992395;28;20089;-58
2021/10/06 02:34:37;;;;;;;2.50;0.97;;;;;;;20.22;49.81;100767.97;4992020;28;20738;-58
2021/10/06 02:37:02;;;;;;;3.27;0.90;;;;;;;20.22;49.78;100757.38;4992423;28;20760;-59
2021/10/06 02:39:27;;;;;;;3.20;0.95;;;;;;;20.21;49.71;100759.19;4992544;28;20781;-58
2021/10/06 02:41:53;;;;;;;3.15;0.90;;;;;;;20.22;49.66;100760.03;4991643;28;20041;-58
2021/10/06 02:44:21;;;;;;;2.78;0.90;;;;;;;20.21;49.91;100758.38;4992150;28;20505;-59
2021/10/06 02:46:47;;;;;;;2.72;0.70;;;;;;;20.21;50.01;100755.72;4992694;28;20022;-58
2021/10/06 02:49:12;;;;;;;2.47;0.70;;;;;;;20.20;49.74;100760.19;4991180;28;20042;-59
2021/10/06 02:51:37;;;;;;;3.10;0.80;;;;;;;20.21;49.55;100763.66;4992207;28;20038;-58
2021/10/06 02:54:05;;;;;;;3.78;1.13;;;;;;;20.20;49.57;100760.19;4992048;28;20037;-60
2021/10/06 02:56:31;;;;;;;2.80;0.80;;;;;;;20.19;49.50;100761.16;4991518;28;20093;-59
2021/10/06 02:58:59;;;;;;;3.47;0.82;;;;;;;20.21;49.59;100768.97;4992177;28;20477;-58
2021/10/06 03:01:24;;;;;;;2.15;0.70;;;;;;;20.20;49.69;100777.84;4992129;28;20037;-59
2021/10/06 03:03:49;;;;;;;1.95;0.80;;;;;;;20.19;49.65;100770.91;4991544;28;20023;-57
2021/10/06 03:09:03;;;;;;;2.72;0.90;;;;;;;20.16;49.58;100773.84;4985867;28;20628;-59
2021/10/06 03:11:29;;;;;;;2.15;0.70;;;;;;;20.15;49.39;100774.81;4992341;28;20031;-58
2021/10/06 03:13:54;;;;;;;2.17;0.68;;;;;;;20.15;49.35;100767.69;4993829;28;20081;-58
2021/10/06 03:16:19;;;;;;;2.35;0.77;;;;;;;20.15;49.39;100774.81;4994998;28;20039;-58
2021/10/06 03:18:44;;;;;;;2.28;0.70;;;;;;;20.14;49.58;100781.06;4995990;28;20030;-58
2021/10/06 03:21:10;;;;;;;2.25;0.70;;;;;;;20.14;49.31;100783.69;4995482;28;20042;-57
2021/10/06 03:23:38;;;;;;;2.85;0.70;;;;;;;20.14;49.46;100778.41;4995064;28;20025;-58
2021/10/06 03:26:03;;;;;;;2.72;1.33;;;;;;;20.13;49.17;100774.13;4995303;28;20101;-57
2021/10/06 03:28:29;;;;;;;2.10;0.70;;;;;;;20.12;49.40;100786.47;4995826;28;20165;-58
2021/10/06 03:30:54;;;;;;;3.25;1.05;;;;;;;20.12;49.25;100789.13;4995121;28;20109;-58
2021/10/06 03:33:19;;;;;;;2.92;0.80;;;;;;;20.13;49.37;100784.69;4995586;28;20030;-59
2021/10/06 03:35:44;;;;;;;2.35;0.70;;;;;;;20.11;49.46;100787.47;4995455;28;20024;-58
2021/10/06 03:38:10;;;;;;;3.77;0.97;;;;;;;20.10;49.39;100801.66;4994452;28;20439;-60
2021/10/06 03:40:35;;;;;;;2.25;0.65;;;;;;;20.09;49.56;100798.19;4995352;28;20429;-59
2021/10/06 03:43:03;;;;;;;2.80;0.65;;;;;;;20.08;49.65;100804.47;4995153;28;20037;-57
2021/10/06 03:45:29;;;;;;;1.58;0.82;;;;;;;20.08;49.54;100799.16;4994892;28;20201;-59
2021/10/06 03:47:54;;;;;;;1.92;0.77;;;;;;;20.08;49.50;100801.81;4995387;28;20158;-58
2021/10/06 03:50:22;;;;;;;3.53;0.80;;;;;;;20.07;49.40;100801.94;4994982;28;20047;-58
2021/10/06 03:52:47;;;;;;;1.92;0.55;;;;;;;20.07;49.22;100804.59;4994622;28;20124;-59
2021/10/06 03:55:16;;;;;;;3.22;0.90;;;;;;;20.07;49.52;100810.72;4995026;28;20054;-58
2021/10/06 03:57:47;;;;;;;2.97;0.80;;;;;;;20.07;49.44;100807.25;4995140;28;20046;-59
2021/10/06 04:00:13;;;;;;;2.90;0.70;;;;;;;20.07;49.40;100812.53;4995402;28;20026;-59
2021/10/06 04:02:39;;;;;;;1.00;0.50;;;;;;;20.07;49.52;100813.34;4995682;28;20081;-59
2021/10/06 04:05:06;;;;;;;2.80;1.00;;;;;;;20.07;49.34;100812.53;4994554;28;20030;-59
2021/10/06 04:07:31;;;;;;;2.53;0.70;;;;;;;20.05;49.52;100814.50;4995332;28;20043;-58
2021/10/06 04:09:57;;;;;;;2.72;0.65;;;;;;;20.05;49.45;100817.13;4995352;28;20105;-60
2021/10/06 04:12:22;;;;;;;2.95;0.80;;;;;;;20.04;49.45;100824.22;4994329;28;20038;-58
2021/10/06 04:14:47;;;;;;;2.30;0.70;;;;;;;20.04;49.32;100824.22;4995189;28;20441;-59
2021/10/06 04:17:12;;;;;;;3.13;0.70;;;;;;;20.03;49.42;100822.56;4994736;28;20073;-59
2021/10/06 04:19:38;;;;;;;3.03;0.90;;;;;;;20.04;49.64;100828.69;4994311;28;20031;-59
2021/10/06 04:22:07;;;;;;;2.92;0.77;;;;;;;20.02;49.56;100822.69;4995200;28;20339;-60
2021/10/06 04:24:35;;;;;;;1.88;0.65;;;;;;;20.04;49.46;100826.03;4994785;28;20034;-57
2021/10/06 04:27:06;;;;;;;2.47;0.73;;;;;;;20.02;49.46;100833.28;4994073;28;20073;-59
2021/10/06 04:29:32;;;;;;;1.92;0.60;;;;;;;20.01;49.59;100834.25;4994536;28;20035;-59
2021/10/06 04:31:57;;;;;;;2.17;0.60;;;;;;;20.00;49.53;100836.06;4994843;28;20029;-59
2021/10/06 04:34:22;;;;;;;2.00;0.65;;;;;;;19.99;49.59;100836.19;4993626;28;20023;-59
2021/10/06 04:36:48;;;;;;;2.03;0.70;;;;;;;19.98;49.63;100835.38;4994535;28;20050;-59
2021/10/06 04:39:13;;;;;;;1.83;0.70;;;;;;;19.97;49.47;100833.69;4994456;28;20046;-59
2021/10/06 04:41:40;;;;;;;3.00;0.90;;;;;;;19.96;49.47;100845.22;4993957;28;20113;-58
2021/10/06 04:44:05;;;;;;;3.88;0.90;;;;;;;19.97;49.53;100851.38;4994304;28;20444;-58
2021/10/06 04:46:31;;;;;;;2.70;0.98;;;;;;;19.95;49.63;100840.94;4994394;28;20049;-59
2021/10/06 04:48:56;;;;;;;2.83;0.70;;;;;;;19.96;49.43;100844.41;4993544;28;20113;-58
2021/10/06 04:51:23;;;;;;;2.88;0.73;;;;;;;19.96;49.67;100845.22;4993878;28;20490;-58
2021/10/06 04:53:48;;;;;;;3.75;0.93;;;;;;;19.96;49.57;100845.22;4994517;28;20069;-59
2021/10/06 04:56:13;;;;;;;3.28;0.90;;;;;;;19.96;49.43;100842.59;4993313;28;20038;-59
2021/10/06 04:58:42;;;;;;;3.17;0.80;;;;;;;19.96;49.54;100841.75;4994178;28;20057;-58
2021/10/06 05:01:07;;;;;;;2.15;0.65;;;;;;;19.94;49.85;100840.06;4993810;28;20066;-59
2021/10/06 05:03:32;;;;;;;2.03;0.70;;;;;;;19.95;49.75;100840.94;4993359;28;20061;-59
2021/10/06 05:05:58;;;;;;;2.05;0.60;;;;;;;19.94;49.71;100844.53;4993921;28;20544;-60
2021/10/06 05:08:27;;;;;;;2.65;0.68;;;;;;;19.95;49.54;100843.56;4993103;28;20027;-58
2021/10/06 05:10:52;;;;;;;3.25;0.80;;;;;;;19.93;49.76;100849.00;4993988;28;20107;-59
2021/10/06 05:13:18;;;;;;;2.22;0.80;;;;;;;19.93;49.75;100840.22;4993490;28;20553;-58
2021/10/06 05:15:46;;;;;;;2.65;1.10;;;;;;;19.93;49.64;100856.06;4992938;28;20057;-59
2021/10/06 05:18:11;;;;;;;2.95;0.70;;;;;;;19.91;49.50;100848.28;4993361;28;20049;-59
2021/10/06 05:20:37;;;;;;;2.45;0.70;;;;;;;19.91;49.66;100848.28;4993565;28;20474;-59
2021/10/06 05:23:02;;;;;;;2.90;0.70;;;;;;;19.92;49.79;100849.13;4992945;28;20037;-58
2021/10/06 05:25:27;;;;;;;2.90;0.70;;;;;;;19.91;49.80;100853.56;4993818;28;20039;-59
2021/10/06 05:27:56;;;;;;;2.28;0.80;;;;;;;19.94;49.72;100863.06;4993606;28;20110;-58
2021/10/06 05:30:22;;;;;;;1.88;0.60;;;;;;;19.98;49.95;100859.16;4992557;28;20029;-59
2021/10/06 05:32:50;;;;;;;2.00;0.60;;;;;;;20.04;50.26;100855.97;4993526;28;20019;-59
2021/10/06 05:35:16;;;;;;;1.90;0.50;;;;;;;20.09;50.28;100859.06;4993465;28;20019;-58
2021/10/06 05:37:42;;;;;;;1.60;0.60;;;;;;;20.14;50.61;100858.63;4992821;28;20045;-58
2021/10/06 05:40:08;;;;;;;2.25;0.60;;;;;;;20.19;50.61;100861.69;4993174;28;20109;-59
2021/10/06 05:42:34;;;;;;;2.63;0.77;;;;;;;20.23;50.68;100860.44;4993516;28;20026;-59
2021/10/06 05:44:59;;;;;;;1.25;0.50;;;;;;;20.27;50.76;100861.03;4992404;28;20157;-59
2021/10/06 05:47:24;;;;;;;2.03;0.60;;;;;;;20.29;50.71;100862.53;4993015;28;20028;-59
2021/10/06 05:49:51;;;;;;;2.67;0.70;;;;;;;20.35;50.80;100863.81;4992986;28;20038;-59
2021/10/06 05:52:16;;;;;;;3.55;0.80;;;;;;;20.38;50.68;100863.53;4992261;28;20471;-59
2021/10/06 05:54:41;;;;;;;3.17;0.73;;;;;;;20.42;50.60;100872.00;4993425;28;20038;-59
2021/10/06 05:57:09;;;;;;;2.70;1.00;;;;;;;20.44;50.60;100873.56;4992724;28;20070;-57
2021/10/06 05:59:35;;;;;;;1.98;0.50;;;;;;;20.46;50.61;100866.31;4992229;28;20770;-59
2021/10/06 06:02:03;;;;;;;1.90;0.50;;;;;;;20.51;50.37;100876.47;4992872;28;20026;-59
2021/10/06 06:04:28;;;;;;;2.35;0.60;;;;;;;20.53;50.32;100871.88;4992559;28;20287;-59
2021/10/06 06:06:54;;;;;;;2.05;0.70;;;;;;;20.56;50.27;100865.47;4993078;28;20404;-59
2021/10/06 06:09:21;;;;;;;1.85;0.50;;;;;;;20.57;50.18;100867.97;4992833;28;20049;-59
2021/10/06 06:11:47;;;;;;;2.65;0.80;;;;;;;20.59;50.21;100867.84;4992311;28;20030;-59
2021/10/06 06:14:13;;;;;;;1.83;0.50;;;;;;;20.60;50.29;100867.72;4992509;28;20038;-58
2021/10/06 06:16:38;;;;;;;1.77;0.50;;;;;;;20.61;50.27;100861.41;4992803;28;20498;-58
2021/10/06 06:19:04;;;;;;;1.77;0.50;;;;;;;20.64;50.25;100868.28;4991612;28;20363;-58
2021/10/06 06:21:29;;;;;;;1.42;0.50;;;;;;;20.70;50.11;100877.50;4992844;28;20296;-59
2021/10/06 06:23:54;;;;;;;2.20;0.60;;;;;;;20.76;49.84;100879.53;4992830;28;20559;-59
2021/10/06 06:26:20;;;;;;;2.03;0.50;;;;;;;20.78;49.91;100880.25;4991733;28;20679;-59
2021/10/06 06:28:45;;;;;;;2.20;0.68;;;;;;;20.80;49.94;100879.13;4992781;28;20478;-60
2021/10/06 06:31:10;;;;;;;2.10;0.60;;;;;;;20.81;49.45;100888.75;4992372;28;20113;-59
2021/10/06 06:33:36;;;;;;;3.65;0.77;;;;;;;20.90;49.06;100895.00;4991899;28;20109;-59
2021/10/06 06:36:04;;;;;;;2.88;0.82;;;;;;;21.01;49.17;100888.72;4993026;28;20037;-60
2021/10/06 06:38:29;;;;;;;2.00;0.60;;;;;;;21.09;48.88;100894.13;4992833;28;20038;-60
2021/10/06 06:40:55;;;;;;;2.45;0.75;;;;;;;21.16;48.52;100895.25;4991903;28;20121;-58
2021/10/06 06:43:20;;;;;;;2.22;0.63;;;;;;;21.23;48.36;100897.31;4992403;28;20117;-59
2021/10/06 06:45:45;;;;;;;1.55;0.50;;;;;;;21.27;48.20;100904.84;4992606;28;20035;-59
2021/10/06 06:48:11;;;;;;;2.88;0.80;;;;;;;21.33;48.15;100892.81;4992018;28;20029;-59
2021/10/06 06:50:39;;;;;;;3.22;0.70;;;;;;;21.38;48.07;100903.84;4996459;28;20044;-59
2021/10/06 06:53:05;;;;;;;3.28;0.90;;;;;;;21.42;48.11;100893.78;4996204;28;20043;-59
2021/10/06 06:55:30;;;;;;;1.92;0.63;;;;;;;21.44;47.80;100905.88;4995616;28;20045;-59
2021/10/06 06:57:58;;;;;;;2.28;0.60;;;;;;;21.44;47.88;100905.88;4996281;28;20046;-58
2021/10/06 07:00:24;;;;;;;1.83;0.60;;;;;;;21.41;47.94;100903.53;4995892;28;20117;-60
2021/10/06 07:02:49;;;;;;;2.17;0.70;;;;;;;21.40;48.15;100914.31;4995706;28;20478;-61
2021/10/06 07:05:15;;;;;;;1.75;0.55;;;;;;;21.36;48.05;100919.91;4996199;28;20283;-61
2021/10/06 07:08:06;;;;;;;2.50;0.60;;;;;;;21.33;48.33;100914.03;4996369;28;20534;-62
2021/10/06 07:10:31;;;;;;;2.60;0.80;;;;;;;21.30;48.44;100917.81;4996279;28;20038;-61
2021/10/06 07:12:56;;;;;;;2.10;0.60;;;;;;;21.28;48.39;100917.09;4996004;28;20030;-60
2021/10/06 07:15:22;;;;;;;2.58;0.70;;;;;;;21.25;48.54;100920.03;4995088;28;20307;-61
2021/10/06 07:17:47;;;;;;;2.63;0.77;;;;;;;21.26;48.54;100923.53;4996196;28;20113;-62
2021/10/06 07:20:15;;;;;;;3.47;0.88;;;;;;;21.26;48.77;100921.72;4995894;28;20608;-63
2021/10/06 07:22:44;;;;;;;3.42;0.82;;;;;;;21.29;48.82;100916.13;4995279;28;20069;-60
2021/10/06 07:25:09;;;;;;;2.25;0.65;;;;;;;21.34;48.68;100926.31;4995556;28;20116;-59
2021/10/06 07:27:35;;;;;;;1.85;0.88;;;;;;;21.39;48.55;100921.41;4995822;28;20071;-62
2021/10/06 07:30:03;;;;;;;1.35;0.50;;;;;;;21.33;48.82;100924.63;4978811;28;20093;-62
2021/10/06 07:32:28;;;;;;;2.72;1.17;;;;;;;21.29;48.77;100920.59;4977581;28;20386;-64
2021/10/06 07:34:54;;;;;;;2.47;0.75;;;;;;;21.31;48.98;100935.38;4996627;28;20031;-61
2021/10/06 07:37:19;;;;;;;3.65;0.70;;;;;;;21.37;49.03;100936.63;4995984;28;20032;-61
2021/10/06 07:39:47;;;;;;;4.22;1.23;;;;;;;21.38;49.74;100936.47;4995539;28;20081;-61
2021/10/06 07:42:12;;;;;;;5.05;1.17;;;;;;;21.43;50.02;100946.66;4998087;28;20046;-63
2021/10/06 07:44:38;;;;;;;4.55;1.25;;;;;;;21.48;49.90;100954.19;4999220;28;20082;-62
2021/10/06 07:47:03;;;;;;;3.15;0.80;;;;;;;21.54;50.04;100951.81;4997715;28;20026;-63
2021/10/06 07:49:29;;;;;;;6.05;1.10;;;;;;;21.60;49.94;100957.50;5000846;28;20084;-65
2021/10/06 07:51:54;;;;;;;5.78;1.42;;;;;;;21.63;50.01;100954.56;4999088;28;20042;-64
2021/10/06 07:54:20;;;;;;;6.22;1.38;;;;;;;21.68;50.00;100958.47;4998419;28;20049;-66
2021/10/06 07:56:45;;;;;;;5.82;1.35;;;;;;;21.72;49.71;100959.00;4998119;28;20472;-62
2021/10/06 07:59:13;;;;;;;4.95;1.27;;;;;;;21.74;49.63;100955.22;4996348;28;20027;-67
2021/10/06 08:01:38;;;;;;;4.22;1.30;;;;;;;21.74;49.83;100968.47;4994784;28;20069;-66
2021/10/06 08:04:04;;;;;;;6.23;1.57;;;;;;;21.72;50.15;100978.41;5001889;28;20474;-66
2021/10/06 08:06:29;;;;;;;3.13;0.93;;;;;;;21.70;49.87;100977.72;4998686;28;20335;-65
2021/10/06 08:08:57;;;;;;;3.45;1.30;;;;;;;21.70;50.03;100988.34;4997664;28;20064;-66
2021/10/06 08:11:22;;;;;;;4.60;1.13;;;;;;;21.69;49.92;100984.00;4998655;28;20525;-65
2021/10/06 08:13:48;;;;;;;4.35;1.27;;;;;;;21.68;49.95;100994.75;5000150;28;20054;-64
2021/10/06 08:16:13;;;;;;;4.15;1.10;;;;;;;21.70;49.94;100998.13;4999473;28;20039;-63
2021/10/06 08:18:38;;;;;;;3.05;0.98;;;;;;;21.71;49.83;100997.97;4999250;28;20042;-64
2021/10/06 08:21:04;;;;;;;2.93;0.87;;;;;;;21.72;49.89;101007.59;4997975;28;20442;-64
2021/10/06 08:23:32;;;;;;;3.60;1.00;;;;;;;21.71;49.90;101010.38;4997839;28;20280;-63
2021/10/06 08:25:59;;;;;;;4.30;1.13;;;;;;;21.71;49.76;101015.69;4997352;28;20149;-65
2021/10/06 08:28:25;;;;;;;3.40;1.02;;;;;;;21.71;49.91;101021.00;4998634;28;20106;-64
2021/10/06 08:30:50;;;;;;;3.95;0.90;;;;;;;21.71;49.64;101023.66;4997479;28;20093;-65
2021/10/06 08:33:16;;;;;;;4.50;1.15;;;;;;;21.70;49.71;101028.13;4994836;28;20025;-62
2021/10/06 08:35:41;;;;;;;5.85;1.05;;;;;;;21.74;49.74;101028.66;4999077;28;20022;-62
2021/10/06 08:38:07;;;;;;;4.18;1.20;;;;;;;21.79;49.68;101042.31;4998464;28;20023;-63
2021/10/06 08:40:34;;;;;;;3.95;1.17;;;;;;;21.84;49.38;101044.53;4997872;28;20061;-60
2021/10/06 08:43:02;;;;;;;4.10;0.98;;;;;;;21.85;49.49;101048.88;4996702;28;20141;-62
2021/10/06 08:45:27;;;;;;;5.50;1.13;;;;;;;21.82;49.64;101057.94;4997811;28;20117;-62
2021/10/06 08:47:53;;;;;;;5.07;1.20;;;;;;;21.80;49.65;101049.31;4995855;28;20061;-61
2021/10/06 08:50:18;;;;;;;5.30;1.08;;;;;;;21.77;49.82;101051.41;4996689;28;20049;-60
2021/10/06 08:52:47;;;;;;;3.20;1.15;;;;;;;21.76;49.70;101065.66;4998185;28;20039;-61
2021/10/06 08:55:13;;;;;;;5.78;1.00;;;;;;;21.71;49.85;101068.72;4997675;28;20048;-62
2021/10/06 08:57:38;;;;;;;4.60;1.17;;;;;;;21.69;49.90;101065.41;4996187;28;20038;-64
2021/10/06 09:00:07;;;;;;;4.20;0.90;;;;;;;21.65;49.87;101075.47;4994447;28;20029;-63
2021/10/06 09:02:38;;;;;;;3.58;0.73;;;;;;;21.60;49.94;101075.03;4995977;28;20065;-60
2021/10/06 09:05:04;;;;;;;2.08;0.80;;;;;;;21.58;50.09;101073.50;4995638;28;20037;-60
2021/10/06 09:07:30;;;;;;;2.65;0.88;;;;;;;21.55;50.12;101078.13;4995476;28;20034;-62
2021/10/06 09:09:55;;;;;;;3.33;1.00;;;;;;;21.53;50.27;101084.53;4996095;28;20077;-61
2021/10/06 09:12:21;;;;;;;2.97;0.90;;;;;;;21.51;50.09;101076.72;4995160;28;20109;-60
2021/10/06 09:14:48;;;;;;;2.17;0.70;;;;;;;21.53;50.29;101095.16;4994099;28;20030;-60
2021/10/06 09:17:14;;;;;;;3.83;1.00;;;;;;;21.58;49.98;101100.88;4995394;28;20030;-61
2021/10/06 09:19:53;;;;;;;2.88;0.85;;;;;;;21.63;49.97;101101.25;4994416;28;20031;-59
2021/10/06 09:22:27;;;;;;;2.63;0.88;;;;;;;21.68;49.54;101108.81;4993235;28;20035;-60
2021/10/06 09:24:57;;;;;;;2.72;0.80;;;;;;;21.61;49.73;101108.53;4994452;28;20034;-60
2021/10/06 09:27:33;;;;;;;4.25;1.00;;;;;;;21.57;49.93;101117.78;4993837;28;20498;-60
2021/10/06 09:30:10;;;;;;;2.15;0.80;;;;;;;21.60;49.89;101116.63;4994339;28;20030;-61
2021/10/06 09:32:42;;;;;;;2.70;0.80;;;;;;;21.61;49.80;101129.75;4994967;28;20030;-63
2021/10/06 09:35:25;;;;;;;4.55;0.98;;;;;;;21.58;49.80;101127.38;4994169;28;20042;-62
2021/10/06 09:37:53;;;;;;;2.63;0.77;;;;;;;21.54;49.87;101136.63;4993676;28;20022;-61
2021/10/06 09:40:23;;;;;;;3.05;0.93;;;;;;;21.54;49.90;101128.66;4995687;28;20108;-60
2021/10/06 09:42:54;;;;;;;3.85;0.90;;;;;;;21.59;49.79;101133.50;4993816;28;20064;-62
2021/10/06 09:45:36;;;;;;;3.85;0.85;;;;;;;21.59;49.70;101138.81;4994403;28;20022;-65
2021/10/06 09:48:11;;;;;;;3.33;1.00;;;;;;;21.54;49.89;101142.75;4993882;28;20037;-62
2021/10/06 09:50:47;;;;;;;2.85;0.85;;;;;;;21.52;50.04;101142.06;4993084;28;20042;-62
2021/10/06 09:53:21;;;;;;;4.47;0.90;;;;;;;21.49;49.92;101136.16;4993596;28;20061;-61
2021/10/06 09:55:49;;;;;;;2.13;0.70;;;;;;;21.43;49.64;101139.34;4993796;28;20022;-61
2021/10/06 09:58:16;;;;;;;2.45;0.70;;;;;;;21.35;50.01;101142.72;4992379;28;20126;-61
2021/10/06 10:00:43;;;;;;;3.03;1.00;;;;;;;21.30;50.28;101143.13;4993207;28;20503;-63
2021/10/06 10:03:08;;;;;;;2.20;0.80;;;;;;;21.28;50.45;101152.19;4993080;28;20375;-62
2021/10/06 10:05:36;;;;;;;5.57;0.80;;;;;;;21.27;50.55;101150.50;4992912;28;20113;-62
2021/10/06 10:08:06;;;;;;;3.15;0.90;;;;;;;21.25;50.73;101160.41;4993337;28;20026;-61
2021/10/06 10:10:35;;;;;;;2.05;0.63;;;;;;;21.26;50.70;101159.44;4993797;28;20018;-60
2021/10/06 10:13:02;;;;;;;2.60;0.80;;;;;;;21.24;50.97;101164.88;4992720;28;20097;-61
2021/10/06 10:15:28;;;;;;;2.97;0.80;;;;;;;21.26;50.65;101170.03;4993272;28;20022;-60
2021/10/06 10:18:01;;;;;;;3.25;0.80;;;;;;;21.27;50.43;101166.41;4992398;28;20062;-60
2021/10/06 10:20:33;;;;;;;3.28;0.80;;;;;;;21.27;50.66;101161.97;4993253;28;20117;-61
2021/10/06 10:23:03;;;;;;;3.45;0.90;;;;;;;21.39;50.28;101162.66;4993653;28;20089;-61
2021/10/06 10:25:34;;;;;;;2.05;0.70;;;;;;;21.45;50.34;101169.22;4993472;28;20080;-60
2021/10/06 10:28:14;;;;;;;3.45;0.82;;;;;;;21.49;50.19;101173.28;4993304;28;20049;-59
2021/10/06 10:30:55;;;;;;;2.47;0.70;;;;;;;21.53;49.91;101172.06;4993976;28;20097;-60
2021/10/06 10:33:40;;;;;;;1.13;0.60;;;;;;;21.46;50.06;101177.03;4991750;28;20146;-59
2021/10/06 10:36:35;;;;;;;3.10;0.77;;;;;;;21.38;50.30;101180.38;4992577;28;20034;-60
2021/10/06 10:39:03;;;;;;;3.28;0.85;;;;;;;21.35;50.36;101187.78;4991671;28;20038;-60
2021/10/06 10:41:48;;;;;;;2.78;0.82;;;;;;;21.27;50.55;101180.50;4992541;28;20474;-60
2021/10/06 10:44:25;;;;;;;2.78;0.88;;;;;;;21.22;50.57;101190.69;4992572;28;20022;-60
2021/10/06 10:47:00;;;;;;;2.63;0.70;;;;;;;21.20;50.75;101189.97;4991950;28;20386;-60
2021/10/06 10:49:26;;;;;;;2.10;0.68;;;;;;;21.17;50.75;101200.84;4992348;28;20031;-60
2021/10/06 10:51:56;;;;;;;2.83;0.80;;;;;;;21.14;50.74;101201.13;4992480;28;20069;-60
2021/10/06 10:54:37;;;;;;;2.58;0.70;;;;;;;21.12;50.99;101205.72;4991626;28;20954;-61
2021/10/06 10:57:25;;;;;;;3.60;0.73;;;;;;;21.09;51.04;101204.16;4992685;28;20073;-60
2021/10/06 10:59:56;;;;;;;2.53;0.80;;;;;;;21.08;51.02;101212.25;4992023;28;20502;-60
2021/10/06 11:02:33;;;;;;;1.75;0.70;;;;;;;21.06;51.08;101219.50;4992260;28;20530;-60
2021/10/06 11:05:05;;;;;;;4.13;0.75;;;;;;;21.02;50.96;101222.44;4992534;28;20406;-61
2021/10/06 11:07:31;;;;;;;2.90;0.63;;;;;;;20.99;51.24;101229.81;4991847;28;20026;-60
2021/10/06 11:10:14;;;;;;;2.25;0.75;;;;;;;20.99;51.24;101225.34;4992517;28;20050;-59
2021/10/06 11:12:45;;;;;;;1.80;0.50;;;;;;;20.99;51.40;101229.81;4992377;28;20553;-60
2021/10/06 11:15:13;;;;;;;1.92;0.70;;;;;;;20.99;51.28;101227.16;4991638;28;20386;-60
2021/10/06 11:18:13;;;;;;;2.15;0.60;;;;;;;21.00;51.50;101228.84;4992482;28;20032;-60
2021/10/06 11:20:43;;;;;;;3.35;0.70;;;;;;;21.04;51.25;101234.72;4992298;28;20497;-59
2021/10/06 11:23:31;;;;;;;1.65;0.60;;;;;;;21.07;51.41;101229.16;4991329;28;20018;-60
2021/10/06 11:25:56;;;;;;;2.17;0.82;;;;;;;21.10;51.26;101242.97;4985751;28;20042;-60
2021/10/06 11:28:22;;;;;;;1.88;0.70;;;;;;;21.12;51.18;101248.13;4991282;28;20521;-61
2021/10/06 11:30:59;;;;;;;2.70;0.70;;;;;;;21.14;51.07;101246.16;4992325;28;20038;-60